Clarks Summit, PA (18411)

2:43 PM EDT on May 25, 2016 (GMT -0400)
Clarks Summit | | Change Station

Elev 1404 ft 41.49 °N, 75.71 °W | Updated 10 seconds ago

Clear
Clear
81.1 °F
Feels Like 80 °F
N
0.0
Wind Variable Wind from NNE
Gusts 0.0 mph

Today
High -- | Low -- °F
--% Chance of Precip.
Yesterday
High -- | Low -- °F
Precip. -- in
Pressure 30.07 in
Visibility 9.0 miles
Clouds Clear
Heat Index 80 °F
Dew Point 50 °F
Humidity 33%
Rainfall 0.00 in
Snow Depth Not available.
5:35 AM 8:25 PM
Waning Gibbous, 86% visible
METAR KAVP 251754Z AUTO VRB06KT 9SM CLR 28/08 A3009 RMK AO2 SLP182 T02830078 10289 20144 55007
Pressure 30.07 in
Visibility 9.0 miles
Clouds Clear
Heat Index 80 °F
Dew Point 50 °F
Humidity 33%
Rainfall 0.00 in
Snow Depth Not available.
5:35 AM 8:25 PM
Waning Gibbous, 86% visible
METAR KAVP 251754Z AUTO VRB06KT 9SM CLR 28/08 A3009 RMK AO2 SLP182 T02830078 10289 20144 55007

10-Day Weather Forecast

Almanac

Astronomy

May. 25, 2016 Rise Set
Actual Time
Civil Twilight
Nautical Twilight
Astronomical Twilight
Moon
Length of Visible Light
Length of Day
Tomorrow will be .
, % of the Moon is Illuminated

Today's Extremes

State Highs State Lows

Community

WunderPhotos

Upload Photos

1,913,758 photos uploaded!

WunderBlog® & News

Nearby

Air Quality

  Air Quality AQ Index Pollutant
Not available.

Snow Depth

Station Depth Elevation

Earthquake Activity

City Distance Mag. Time & Date
Minimum magnitude displayed is 2.5.

Coastal Water Temperatures

Place Temperature

Stations

Nearby Weather Stations

Station Location Temp. Windchill Dew Point Humidity Wind Precip. Elev Updated Type
                   

Watches & Warnings

There are currently no watches in effect.